createdAt,value
2022-07-29T00:02:15.635Z,19.44
2022-07-29T00:04:42.386Z,19.41
2022-07-29T00:07:09.180Z,19.39
2022-07-29T00:09:51.148Z,19.34
2022-07-29T00:12:21.384Z,19.31
2022-07-29T00:14:57.623Z,19.31
2022-07-29T00:17:25.285Z,19.29
2022-07-29T00:19:52.208Z,19.25
2022-07-29T00:22:19.466Z,19.23
2022-07-29T00:24:46.078Z,19.18
2022-07-29T00:27:12.716Z,19.18
2022-07-29T00:29:39.417Z,19.14
2022-07-29T00:32:06.424Z,19.14
2022-07-29T00:34:51.919Z,19.06
2022-07-29T00:37:18.607Z,18.99
2022-07-29T00:39:45.271Z,18.96
2022-07-29T00:42:12.063Z,18.89
2022-07-29T00:44:42.589Z,18.81
2022-07-29T00:47:10.814Z,18.73
2022-07-29T00:49:38.950Z,18.67
2022-07-29T00:52:06.645Z,18.63
2022-07-29T00:54:35.309Z,18.56
2022-07-29T00:57:11.556Z,18.52
2022-07-29T00:59:38.302Z,18.45
2022-07-29T01:02:05.066Z,18.38
2022-07-29T01:04:32.250Z,18.30
2022-07-29T01:07:01.601Z,18.22
2022-07-29T01:09:42.824Z,18.16
2022-07-29T01:12:22.355Z,18.07
2022-07-29T01:14:50.897Z,18.03
2022-07-29T01:17:25.119Z,17.96
2022-07-29T01:20:08.301Z,17.95
2022-07-29T01:22:34.851Z,17.90
2022-07-29T01:25:44.849Z,17.88
2022-07-29T01:28:30.270Z,17.84
2022-07-29T01:30:59.715Z,17.83
2022-07-29T01:33:48.152Z,17.80
2022-07-29T01:36:22.595Z,17.75
2022-07-29T01:39:03.414Z,17.73
2022-07-29T01:41:33.564Z,17.71
2022-07-29T01:44:07.209Z,17.64
2022-07-29T01:46:38.203Z,17.58
2022-07-29T01:49:22.561Z,17.52
2022-07-29T01:51:54.494Z,17.48
2022-07-29T01:54:29.959Z,17.43
2022-07-29T01:56:59.693Z,17.37
2022-07-29T01:59:27.046Z,17.34
2022-07-29T02:01:55.909Z,17.38
2022-07-29T02:04:29.076Z,17.38
2022-07-29T02:07:02.707Z,17.46
2022-07-29T02:09:31.115Z,17.53
2022-07-29T02:12:00.546Z,17.55
2022-07-29T02:14:29.533Z,17.56
2022-07-29T02:16:58.264Z,17.59
2022-07-29T02:19:28.027Z,17.59
2022-07-29T02:21:57.249Z,17.61
2022-07-29T02:24:25.470Z,17.64
2022-07-29T02:26:54.665Z,17.62
2022-07-29T02:29:24.466Z,17.58
2022-07-29T02:31:52.869Z,17.60
2022-07-29T02:34:21.752Z,17.54
2022-07-29T02:36:50.500Z,17.50
2022-07-29T02:39:18.382Z,17.50
2022-07-29T02:41:48.431Z,17.48
2022-07-29T02:44:20.920Z,17.44
2022-07-29T02:46:52.939Z,17.45
2022-07-29T02:49:45.282Z,17.37
2022-07-29T02:52:19.357Z,17.26
2022-07-29T02:54:55.219Z,17.22
2022-07-29T02:57:29.840Z,17.19
2022-07-29T02:59:59.949Z,17.21
2022-07-29T03:02:28.014Z,17.17
2022-07-29T03:04:56.833Z,17.15
2022-07-29T03:07:25.629Z,17.09
2022-07-29T03:09:53.341Z,17.03
2022-07-29T03:12:20.432Z,16.92
2022-07-29T03:14:47.488Z,16.72
2022-07-29T03:17:14.808Z,16.75
2022-07-29T03:19:41.721Z,16.72
2022-07-29T03:22:08.432Z,16.84
2022-07-29T03:24:37.195Z,16.88
2022-07-29T03:27:05.082Z,16.61
2022-07-29T03:29:33.473Z,16.37
2022-07-29T03:32:03.635Z,16.06
2022-07-29T03:34:34.156Z,15.81
2022-07-29T03:37:00.773Z,15.78
2022-07-29T03:39:32.999Z,15.60
2022-07-29T03:42:01.993Z,15.48
2022-07-29T03:44:29.517Z,15.46
2022-07-29T03:46:59.575Z,15.46
2022-07-29T03:49:27.873Z,15.39
2022-07-29T03:51:55.406Z,15.38
2022-07-29T03:54:22.406Z,15.28
2022-07-29T03:56:51.272Z,15.29
2022-07-29T03:59:20.495Z,15.38
2022-07-29T04:01:47.894Z,15.50
2022-07-29T04:04:14.970Z,15.67
2022-07-29T04:06:43.539Z,15.77
2022-07-29T04:09:11.074Z,15.63
2022-07-29T04:12:01.756Z,15.44
2022-07-29T04:14:33.906Z,15.25
2022-07-29T04:17:01.720Z,15.36
2022-07-29T04:19:28.655Z,15.52
2022-07-29T04:21:55.300Z,15.71
2022-07-29T04:24:21.917Z,16.01
2022-07-29T04:26:49.193Z,16.02
2022-07-29T04:29:15.920Z,16.08
2022-07-29T04:31:43.740Z,16.11
2022-07-29T04:34:11.201Z,16.28
2022-07-29T04:36:38.152Z,16.43
2022-07-29T04:39:04.924Z,16.47
2022-07-29T04:41:33.282Z,16.45
2022-07-29T04:44:12.420Z,16.50
2022-07-29T04:46:39.145Z,16.54
2022-07-29T04:49:06.126Z,16.59
2022-07-29T04:51:32.781Z,16.81
2022-07-29T04:53:59.437Z,17.15
2022-07-29T04:56:26.170Z,17.22
2022-07-29T04:58:52.807Z,17.42
2022-07-29T05:01:19.847Z,17.64
2022-07-29T05:03:46.794Z,17.84
2022-07-29T05:06:13.374Z,17.92
2022-07-29T05:08:40.028Z,18.00
2022-07-29T05:11:12.014Z,18.06
2022-07-29T05:13:45.749Z,18.26
2022-07-29T05:16:14.269Z,18.49
2022-07-29T05:18:41.124Z,18.58
2022-07-29T05:21:07.712Z,18.73
2022-07-29T05:23:34.316Z,18.67
2022-07-29T05:26:00.922Z,18.62
2022-07-29T05:28:27.548Z,18.67
2022-07-29T05:30:54.223Z,18.77
2022-07-29T05:33:35.296Z,18.84
2022-07-29T05:36:06.542Z,18.89
2022-07-29T05:38:34.208Z,18.89
2022-07-29T05:41:01.277Z,18.90
2022-07-29T05:43:29.261Z,18.97
2022-07-29T05:45:56.278Z,19.17
2022-07-29T05:48:23.078Z,19.03
2022-07-29T05:50:49.685Z,19.03
2022-07-29T05:53:19.346Z,19.09
2022-07-29T05:55:46.906Z,19.10
2022-07-29T05:58:13.646Z,19.21
2022-07-29T06:00:40.882Z,19.33
2022-07-29T06:03:07.742Z,19.32
2022-07-29T06:05:34.378Z,19.25
2022-07-29T06:08:00.986Z,19.16
2022-07-29T06:10:27.895Z,19.08
2022-07-29T06:12:54.652Z,18.96
2022-07-29T06:15:21.316Z,18.95
2022-07-29T06:17:59.055Z,18.96
2022-07-29T06:20:32.535Z,18.83
2022-07-29T06:23:00.314Z,18.73
2022-07-29T06:25:27.478Z,18.61
2022-07-29T06:27:54.060Z,18.61
2022-07-29T06:30:20.794Z,18.56
2022-07-29T06:32:48.048Z,18.53
2022-07-29T06:38:01.693Z,18.61
2022-07-29T06:40:47.487Z,18.70
2022-07-29T06:43:14.532Z,18.72
2022-07-29T06:45:42.598Z,18.67
2022-07-29T06:48:10.720Z,18.70
2022-07-29T06:50:37.425Z,18.78
2022-07-29T06:53:04.555Z,18.75
2022-07-29T06:55:31.267Z,18.79
2022-07-29T06:57:57.865Z,18.84
2022-07-29T07:00:24.501Z,18.98
2022-07-29T07:02:57.508Z,19.00
2022-07-29T07:05:24.315Z,19.03
2022-07-29T07:07:50.896Z,19.29
2022-07-29T07:10:17.562Z,19.60
2022-07-29T07:12:44.300Z,20.11
2022-07-29T07:15:11.149Z,21.28
2022-07-29T07:17:38.700Z,21.15
2022-07-29T07:20:06.989Z,22.28
2022-07-29T07:22:38.602Z,22.79
2022-07-29T07:25:06.010Z,22.97
2022-07-29T07:27:32.629Z,22.75
2022-07-29T07:29:59.248Z,22.71
2022-07-29T07:32:26.053Z,23.05
2022-07-29T07:34:52.731Z,22.56
2022-07-29T07:37:21.437Z,22.32
2022-07-29T07:39:48.046Z,22.17
2022-07-29T07:42:14.727Z,22.38
2022-07-29T07:45:03.743Z,23.04
2022-07-29T07:47:28.096Z,23.30
2022-07-29T07:49:55.361Z,23.09
2022-07-29T07:52:22.847Z,22.91
2022-07-29T07:54:49.811Z,23.14
2022-07-29T07:57:16.709Z,22.83
2022-07-29T07:59:43.562Z,22.16
2022-07-29T08:02:10.582Z,22.04
2022-07-29T08:04:37.300Z,21.98
2022-07-29T08:07:04.021Z,21.91
2022-07-29T08:09:31.153Z,22.07
2022-07-29T08:11:59.328Z,22.38
2022-07-29T08:14:26.280Z,22.64
2022-07-29T08:16:52.906Z,22.77
2022-07-29T08:19:19.596Z,23.08
2022-07-29T08:21:46.572Z,23.60
2022-07-29T08:24:32.218Z,23.97
2022-07-29T08:26:58.879Z,23.99
2022-07-29T08:29:25.472Z,23.48
2022-07-29T08:31:52.343Z,23.84
2022-07-29T08:34:19.173Z,23.44
2022-07-29T08:36:54.559Z,23.67
2022-07-29T08:39:21.133Z,23.56
2022-07-29T08:41:56.752Z,24.18
2022-07-29T08:44:31.045Z,25.04
2022-07-29T08:46:58.194Z,25.15
2022-07-29T08:49:25.125Z,24.90
2022-07-29T08:51:54.864Z,25.19
2022-07-29T08:54:23.416Z,25.29
2022-07-29T08:56:51.347Z,25.67
2022-07-29T08:59:21.552Z,25.34
2022-07-29T09:01:53.234Z,25.30
2022-07-29T09:04:22.033Z,25.63
2022-07-29T09:06:52.304Z,25.82
2022-07-29T09:09:19.112Z,26.01
2022-07-29T09:11:45.867Z,26.29
2022-07-29T09:14:14.356Z,26.57
2022-07-29T09:16:56.396Z,26.92
2022-07-29T09:19:36.778Z,26.34
2022-07-29T09:22:06.448Z,26.35
2022-07-29T09:24:36.096Z,26.43
2022-07-29T09:27:03.009Z,26.93
2022-07-29T09:29:33.325Z,27.10
2022-07-29T09:32:09.510Z,26.82
2022-07-29T09:34:36.129Z,26.73
2022-07-29T09:37:03.868Z,26.46
2022-07-29T09:39:46.617Z,27.20
2022-07-29T09:42:14.227Z,27.63
2022-07-29T09:44:49.182Z,27.92
2022-07-29T09:47:17.627Z,27.88
2022-07-29T09:49:58.820Z,27.75
2022-07-29T09:52:30.680Z,26.44
2022-07-29T09:55:08.475Z,27.08
2022-07-29T09:57:35.303Z,27.12
2022-07-29T10:00:04.485Z,27.53
2022-07-29T10:02:40.042Z,27.46
2022-07-29T10:05:17.250Z,27.84
2022-07-29T10:07:57.261Z,27.88
2022-07-29T10:10:36.587Z,27.83
2022-07-29T10:13:16.218Z,27.87
2022-07-29T10:15:45.318Z,27.63
2022-07-29T10:18:14.176Z,27.55
2022-07-29T10:20:41.334Z,28.15
2022-07-29T10:23:08.221Z,28.09
2022-07-29T10:25:34.871Z,27.32
2022-07-29T10:28:01.727Z,27.34
2022-07-29T10:30:28.579Z,27.57
2022-07-29T10:33:07.764Z,28.25
2022-07-29T10:36:19.086Z,28.98
2022-07-29T10:39:00.012Z,28.20
2022-07-29T10:41:43.672Z,27.88
2022-07-29T10:44:23.193Z,27.89
2022-07-29T10:46:51.801Z,27.82
2022-07-29T10:49:24.764Z,28.33
2022-07-29T10:52:12.700Z,28.89
2022-07-29T10:54:48.518Z,28.31
2022-07-29T10:57:54.030Z,27.72
2022-07-29T11:00:29.582Z,27.32
2022-07-29T11:02:59.192Z,26.99
2022-07-29T11:05:32.198Z,26.66
2022-07-29T11:08:19.655Z,26.34
2022-07-29T11:10:51.943Z,26.23
2022-07-29T11:13:44.192Z,26.02
2022-07-29T11:16:11.362Z,26.20
2022-07-29T11:19:13.529Z,26.15
2022-07-29T11:22:05.454Z,26.20
2022-07-29T11:24:33.042Z,26.10
2022-07-29T11:27:13.480Z,25.88
2022-07-29T11:29:58.671Z,25.79
2022-07-29T11:32:40.171Z,25.88
2022-07-29T11:35:37.154Z,25.95
2022-07-29T11:38:28.576Z,26.41
2022-07-29T11:41:27.717Z,27.60
2022-07-29T11:43:59.752Z,28.17
2022-07-29T11:46:44.751Z,28.07
2022-07-29T11:49:12.627Z,27.87
2022-07-29T11:51:48.712Z,27.53
2022-07-29T11:54:27.549Z,27.67
2022-07-29T11:56:55.923Z,27.84
2022-07-29T11:59:22.924Z,27.94
2022-07-29T12:02:18.369Z,28.64
2022-07-29T12:04:55.205Z,28.96
2022-07-29T12:07:48.991Z,29.55
2022-07-29T12:10:19.389Z,29.62
2022-07-29T12:12:53.120Z,29.04
2022-07-29T12:15:22.351Z,28.40
2022-07-29T12:17:49.267Z,27.32
2022-07-29T12:20:24.394Z,27.08
2022-07-29T12:22:51.959Z,27.61
2022-07-29T12:25:34.993Z,28.30
2022-07-29T12:28:04.243Z,28.75
2022-07-29T12:30:49.583Z,28.79
2022-07-29T12:33:30.505Z,28.16
2022-07-29T12:36:06.788Z,27.81
2022-07-29T12:38:35.770Z,27.37
2022-07-29T12:41:04.468Z,27.30
2022-07-29T12:43:31.527Z,27.77
2022-07-29T12:45:58.846Z,28.03
2022-07-29T12:48:35.766Z,28.44
2022-07-29T12:51:04.713Z,28.68
2022-07-29T12:53:31.505Z,28.79
2022-07-29T12:56:07.950Z,28.86
2022-07-29T12:58:43.862Z,28.83
2022-07-29T13:01:18.267Z,28.77
2022-07-29T13:03:57.700Z,28.68
2022-07-29T13:06:28.984Z,28.48
2022-07-29T13:09:04.751Z,27.94
2022-07-29T13:11:36.369Z,28.17
2022-07-29T13:14:06.803Z,28.48
2022-07-29T13:16:33.786Z,28.16
2022-07-29T13:19:12.452Z,27.92
2022-07-29T13:21:40.239Z,27.76
2022-07-29T13:24:07.988Z,27.58
2022-07-29T13:26:35.045Z,27.72
2022-07-29T13:29:02.027Z,27.71
2022-07-29T13:31:28.671Z,28.02
2022-07-29T13:33:55.368Z,28.28
2022-07-29T13:36:22.005Z,28.44
2022-07-29T13:38:48.735Z,28.36
2022-07-29T13:41:15.624Z,27.96
2022-07-29T13:43:44.716Z,27.96
2022-07-29T13:46:11.399Z,28.05
2022-07-29T13:48:38.312Z,28.12
2022-07-29T13:51:05.024Z,28.13
2022-07-29T13:53:31.709Z,28.34
2022-07-29T13:55:58.423Z,28.42
2022-07-29T13:58:25.133Z,28.56
2022-07-29T14:00:51.873Z,28.56
2022-07-29T14:03:18.563Z,28.56
2022-07-29T14:05:45.312Z,28.57
2022-07-29T14:08:12.105Z,28.39
2022-07-29T14:10:38.733Z,28.15
2022-07-29T14:13:05.676Z,28.24
2022-07-29T14:15:51.537Z,28.24
2022-07-29T14:18:18.222Z,28.12
2022-07-29T14:20:44.928Z,27.90
2022-07-29T14:23:11.538Z,27.86
2022-07-29T14:25:41.015Z,27.99
2022-07-29T14:28:09.751Z,28.07
2022-07-29T14:30:36.401Z,27.99
2022-07-29T14:33:04.039Z,27.83
2022-07-29T14:35:30.696Z,27.69
2022-07-29T14:37:58.138Z,27.65
2022-07-29T14:40:24.981Z,27.71
2022-07-29T14:42:51.590Z,27.70
2022-07-29T14:45:18.418Z,27.67
2022-07-29T14:47:45.879Z,27.58
2022-07-29T14:50:13.506Z,27.38
2022-07-29T14:52:40.484Z,27.25
2022-07-29T14:55:19.488Z,27.13
2022-07-29T14:57:46.708Z,27.12
2022-07-29T15:00:13.648Z,26.95
2022-07-29T15:03:00.835Z,27.09
2022-07-29T15:05:27.808Z,27.21
2022-07-29T15:07:54.690Z,26.98
2022-07-29T15:10:21.619Z,26.80
2022-07-29T15:12:51.426Z,26.70
2022-07-29T15:15:18.165Z,26.61
2022-07-29T15:17:44.962Z,26.43
2022-07-29T15:20:12.720Z,26.47
2022-07-29T15:22:40.211Z,26.51
2022-07-29T15:25:07.195Z,26.27
2022-07-29T15:27:33.890Z,26.39
2022-07-29T15:30:00.496Z,26.23
2022-07-29T15:32:28.604Z,26.02
2022-07-29T15:34:55.209Z,26.07
2022-07-29T15:37:21.874Z,26.12
2022-07-29T15:39:48.488Z,26.29
2022-07-29T15:42:15.201Z,26.40
2022-07-29T15:44:44.436Z,26.49
2022-07-29T15:47:11.041Z,26.51
2022-07-29T15:49:48.091Z,26.76
2022-07-29T15:52:25.797Z,26.86
2022-07-29T15:54:57.632Z,26.77
2022-07-29T15:57:24.875Z,26.96
2022-07-29T15:59:52.006Z,26.94
2022-07-29T16:02:18.818Z,26.86
2022-07-29T16:04:45.527Z,27.08
2022-07-29T16:07:12.398Z,27.57
2022-07-29T16:09:41.616Z,27.66
2022-07-29T16:12:15.229Z,27.82
2022-07-29T16:14:43.432Z,27.87
2022-07-29T16:17:10.310Z,28.05
2022-07-29T16:19:43.083Z,28.06
2022-07-29T16:22:09.877Z,27.38
2022-07-29T16:24:36.516Z,27.30
2022-07-29T16:27:03.221Z,27.23
2022-07-29T16:29:29.831Z,27.59
2022-07-29T16:31:57.036Z,27.57
2022-07-29T16:34:23.684Z,27.26
2022-07-29T16:36:50.336Z,27.17
2022-07-29T16:39:16.924Z,27.15
2022-07-29T16:41:43.549Z,27.11
2022-07-29T16:44:10.166Z,26.80
2022-07-29T16:46:37.435Z,26.74
2022-07-29T16:49:05.850Z,26.50
2022-07-29T16:51:32.800Z,26.36
2022-07-29T16:53:59.440Z,26.04
2022-07-29T16:56:26.106Z,26.05
2022-07-29T16:58:52.758Z,25.96
2022-07-29T17:01:20.013Z,26.04
2022-07-29T17:04:05.623Z,26.01
2022-07-29T17:06:36.727Z,25.58
2022-07-29T17:09:07.866Z,25.46
2022-07-29T17:11:51.572Z,25.26
2022-07-29T17:14:24.969Z,24.98
2022-07-29T17:17:01.410Z,24.90
2022-07-29T17:19:32.127Z,25.07
2022-07-29T17:22:10.154Z,25.17
2022-07-29T17:24:41.068Z,24.99
2022-07-29T17:27:09.575Z,24.98
2022-07-29T17:29:36.413Z,25.07
2022-07-29T17:32:03.628Z,24.91
2022-07-29T17:34:30.488Z,24.71
2022-07-29T17:36:57.823Z,24.29
2022-07-29T17:39:24.647Z,24.18
2022-07-29T17:41:51.285Z,24.02
2022-07-29T17:44:18.333Z,23.95
2022-07-29T17:46:44.997Z,24.01
2022-07-29T17:49:11.745Z,24.00
2022-07-29T17:51:38.812Z,23.86
2022-07-29T17:54:05.578Z,23.73
2022-07-29T17:56:32.317Z,23.59
2022-07-29T17:59:01.526Z,23.60
2022-07-29T18:01:28.736Z,23.60
2022-07-29T18:03:59.832Z,23.66
2022-07-29T18:06:26.919Z,23.60
2022-07-29T18:08:53.975Z,23.61
2022-07-29T18:11:20.847Z,23.40
2022-07-29T18:13:47.644Z,23.26
2022-07-29T18:16:14.378Z,23.09
2022-07-29T18:18:44.170Z,22.92
2022-07-29T18:21:11.547Z,22.80
2022-07-29T18:23:38.929Z,22.71
2022-07-29T18:26:06.160Z,22.64
2022-07-29T18:28:32.920Z,22.55
2022-07-29T18:31:00.605Z,22.41
2022-07-29T18:33:27.912Z,22.31
2022-07-29T18:36:10.537Z,22.22
2022-07-29T18:38:38.089Z,22.21
2022-07-29T18:41:04.697Z,22.10
2022-07-29T18:43:31.489Z,22.08
2022-07-29T18:45:58.358Z,22.02
2022-07-29T18:48:25.237Z,21.97
2022-07-29T18:50:51.978Z,21.93
2022-07-29T18:53:18.590Z,21.92
2022-07-29T18:55:45.393Z,21.82
2022-07-29T18:58:12.218Z,21.73
2022-07-29T19:00:39.124Z,21.71
2022-07-29T19:03:05.876Z,21.71
2022-07-29T19:05:32.719Z,21.62
2022-07-29T19:07:59.508Z,21.61
2022-07-29T19:10:26.837Z,21.57
2022-07-29T19:13:07.819Z,21.53
2022-07-29T19:15:34.437Z,21.50
2022-07-29T19:18:01.481Z,21.41
2022-07-29T19:20:28.663Z,21.37
2022-07-29T19:22:55.307Z,21.33
2022-07-29T19:25:23.078Z,21.31
2022-07-29T19:27:49.716Z,21.23
2022-07-29T19:30:16.364Z,21.18
2022-07-29T19:32:43.005Z,21.13
2022-07-29T19:35:32.784Z,21.06
2022-07-29T19:38:02.627Z,20.98
2022-07-29T19:40:29.817Z,20.87
2022-07-29T19:42:57.417Z,20.84
2022-07-29T19:45:26.306Z,20.79
2022-07-29T19:47:57.663Z,20.70
2022-07-29T19:50:28.428Z,20.64
2022-07-29T19:52:56.202Z,20.58
2022-07-29T19:55:23.863Z,20.55
2022-07-29T19:57:52.775Z,20.51
2022-07-29T20:00:21.083Z,20.42
2022-07-29T20:02:49.164Z,20.33
2022-07-29T20:05:16.176Z,20.26
2022-07-29T20:07:43.025Z,20.19
2022-07-29T20:10:10.928Z,20.10
2022-07-29T20:12:38.408Z,19.95
2022-07-29T20:15:07.405Z,19.78
2022-07-29T20:17:40.048Z,19.61
2022-07-29T20:20:09.078Z,19.45
2022-07-29T20:22:36.795Z,19.41
2022-07-29T20:25:04.704Z,19.37
2022-07-29T20:27:31.298Z,19.36
2022-07-29T20:29:57.942Z,19.48
2022-07-29T20:32:24.582Z,19.57
2022-07-29T20:34:51.228Z,19.45
2022-07-29T20:37:20.506Z,19.32
2022-07-29T20:39:47.946Z,19.19
2022-07-29T20:42:15.852Z,19.11
2022-07-29T20:44:42.886Z,19.02
2022-07-29T20:47:09.831Z,19.05
2022-07-29T20:49:36.681Z,19.08
2022-07-29T20:52:03.904Z,19.00
2022-07-29T20:54:30.606Z,18.89
2022-07-29T20:56:57.883Z,18.73
2022-07-29T20:59:25.192Z,18.62
2022-07-29T21:01:51.869Z,18.49
2022-07-29T21:04:18.581Z,18.40
2022-07-29T21:06:45.211Z,18.34
2022-07-29T21:09:11.794Z,18.31
2022-07-29T21:11:43.753Z,18.30
2022-07-29T21:14:41.027Z,18.17
2022-07-29T21:17:08.122Z,18.10
2022-07-29T21:19:35.253Z,17.97
2022-07-29T21:22:01.991Z,17.93
2022-07-29T21:24:28.840Z,17.89
2022-07-29T21:27:20.277Z,17.77
2022-07-29T21:29:48.039Z,17.63
2022-07-29T21:32:14.818Z,17.52
2022-07-29T21:34:56.556Z,17.35
2022-07-29T21:37:23.326Z,17.29
2022-07-29T21:39:49.948Z,17.06
2022-07-29T21:42:16.892Z,16.99
2022-07-29T21:44:43.812Z,16.95
2022-07-29T21:47:11.846Z,16.89
2022-07-29T21:49:39.107Z,16.80
2022-07-29T21:52:06.225Z,16.79
2022-07-29T21:54:34.904Z,16.72
2022-07-29T21:57:01.859Z,16.68
2022-07-29T21:59:29.409Z,16.56
2022-07-29T22:01:56.273Z,16.43
2022-07-29T22:04:22.950Z,16.49
2022-07-29T22:06:49.631Z,16.53
2022-07-29T22:09:16.248Z,16.45
2022-07-29T22:11:43.694Z,16.39
2022-07-29T22:14:10.424Z,16.45
2022-07-29T22:16:37.217Z,16.34
2022-07-29T22:19:04.352Z,16.38
2022-07-29T22:21:31.009Z,16.36
2022-07-29T22:23:58.392Z,16.29
2022-07-29T22:26:25.033Z,16.18
2022-07-29T22:28:51.822Z,16.23
2022-07-29T22:31:18.671Z,16.29
2022-07-29T22:33:45.411Z,16.45
2022-07-29T22:36:12.092Z,16.44
2022-07-29T22:38:38.793Z,16.32
2022-07-29T22:41:05.463Z,16.27
2022-07-29T22:43:32.098Z,16.11
2022-07-29T22:45:58.803Z,16.10
2022-07-29T22:48:25.532Z,16.24
2022-07-29T22:50:52.415Z,16.28
2022-07-29T22:53:19.064Z,16.30
2022-07-29T22:55:45.774Z,16.44
2022-07-29T22:58:12.528Z,16.47
2022-07-29T23:00:39.232Z,16.32
2022-07-29T23:03:05.883Z,16.21
2022-07-29T23:05:32.759Z,16.15
2022-07-29T23:07:59.758Z,16.24
2022-07-29T23:10:26.588Z,16.36
2022-07-29T23:12:53.351Z,16.69
2022-07-29T23:15:20.207Z,16.71
2022-07-29T23:17:46.912Z,16.59
2022-07-29T23:20:14.676Z,16.49
2022-07-29T23:22:41.869Z,16.49
2022-07-29T23:25:08.670Z,16.67
2022-07-29T23:27:35.437Z,16.86
2022-07-29T23:30:02.883Z,16.89
2022-07-29T23:32:29.536Z,16.84
2022-07-29T23:34:56.173Z,16.60
2022-07-29T23:37:22.933Z,16.43
2022-07-29T23:39:49.611Z,16.41
2022-07-29T23:42:16.244Z,16.23
2022-07-29T23:44:43.151Z,15.99
2022-07-29T23:47:09.801Z,15.86
2022-07-29T23:49:36.389Z,15.81
2022-07-29T23:52:03.115Z,15.76
2022-07-29T23:54:29.781Z,15.62
2022-07-29T23:56:57.903Z,15.65
2022-07-29T23:59:25.389Z,15.56
